createdAt,value
2023-02-08T00:00:58.940Z,32.97
2023-02-08T00:03:28.160Z,36.90
2023-02-08T00:05:55.181Z,29.97
2023-02-08T00:08:22.205Z,32.93
2023-02-08T00:10:50.319Z,35.37
2023-02-08T00:13:17.813Z,35.23
2023-02-08T00:15:46.935Z,36.10
2023-02-08T00:18:14.844Z,29.43
2023-02-08T00:20:43.232Z,29.07
2023-02-08T00:23:11.448Z,32.87
2023-02-08T00:25:39.853Z,31.00
2023-02-08T00:28:09.485Z,34.43
2023-02-08T00:30:36.666Z,39.60
2023-02-08T00:33:04.726Z,29.07
2023-02-08T00:35:32.095Z,33.03
2023-02-08T00:37:59.166Z,30.60
2023-02-08T00:40:27.038Z,30.53
2023-02-08T00:42:54.150Z,31.73
2023-02-08T00:45:21.343Z,26.97
2023-02-08T00:47:48.339Z,36.73
2023-02-08T00:50:15.516Z,32.07
2023-02-08T00:52:42.515Z,30.53
2023-02-08T00:55:09.659Z,32.70
2023-02-08T00:57:36.773Z,38.57
2023-02-08T01:00:06.241Z,36.10
2023-02-08T01:02:33.629Z,38.50
2023-02-08T01:05:00.743Z,32.43
2023-02-08T01:07:27.840Z,33.80
2023-02-08T01:09:54.849Z,30.53
2023-02-08T01:12:21.854Z,33.17
2023-02-08T01:14:49.272Z,27.40
2023-02-08T01:17:16.348Z,36.70
2023-02-08T01:19:43.358Z,30.10
2023-02-08T01:22:10.379Z,25.30
2023-02-08T01:24:37.432Z,32.63
2023-02-08T01:27:04.644Z,31.00
2023-02-08T01:29:31.714Z,26.70
2023-02-08T01:31:58.781Z,29.57
2023-02-08T01:34:25.855Z,31.33
2023-02-08T01:36:52.877Z,26.33
2023-02-08T01:39:19.961Z,29.13
2023-02-08T01:41:47.205Z,32.40
2023-02-08T01:44:14.149Z,30.03
2023-02-08T01:46:48.777Z,25.70
2023-02-08T01:49:30.308Z,29.70
2023-02-08T01:52:19.249Z,33.67
2023-02-08T01:55:14.122Z,31.90
2023-02-08T01:57:43.107Z,26.90
2023-02-08T02:00:17.894Z,30.00
2023-02-08T02:02:47.856Z,30.67
2023-02-08T02:05:17.497Z,27.43
2023-02-08T02:07:44.995Z,27.87
2023-02-08T02:10:25.435Z,34.40
2023-02-08T02:12:55.136Z,26.10
2023-02-08T02:15:22.404Z,28.43
2023-02-08T02:17:49.813Z,29.87
2023-02-08T02:20:29.399Z,30.47
2023-02-08T02:23:20.808Z,26.13
2023-02-08T02:25:59.769Z,26.80
2023-02-08T02:28:52.883Z,28.73
2023-02-08T02:31:40.564Z,28.17
2023-02-08T02:35:05.475Z,28.50
2023-02-08T02:38:08.788Z,27.07
2023-02-08T02:40:50.399Z,27.13
2023-02-08T02:43:46.310Z,23.00
2023-02-08T02:46:35.295Z,32.70
2023-02-08T02:50:07.127Z,24.17
2023-02-08T02:53:05.928Z,31.37
2023-02-08T02:55:40.726Z,29.50
2023-02-08T02:58:10.763Z,26.47
2023-02-08T03:00:38.382Z,28.53
2023-02-08T03:03:07.085Z,26.87
2023-02-08T03:05:34.698Z,25.53
2023-02-08T03:08:39.439Z,24.67
2023-02-08T03:11:31.720Z,30.03
2023-02-08T03:14:36.691Z,27.27
2023-02-08T03:17:27.668Z,26.90
2023-02-08T03:20:16.598Z,30.80
2023-02-08T03:23:10.520Z,26.87
2023-02-08T03:25:58.022Z,24.80
2023-02-08T03:28:28.615Z,27.60
2023-02-08T03:31:21.490Z,29.87
2023-02-08T03:34:13.217Z,28.03
2023-02-08T03:36:55.816Z,30.70
2023-02-08T03:39:28.895Z,29.53
2023-02-08T03:42:01.257Z,27.83
2023-02-08T03:44:41.813Z,29.73
2023-02-08T03:47:19.663Z,27.67
2023-02-08T03:49:54.128Z,29.37
2023-02-08T03:52:23.165Z,26.50
2023-02-08T03:55:01.209Z,25.30
2023-02-08T03:57:38.379Z,29.87
2023-02-08T04:00:16.303Z,29.00
2023-02-08T04:03:09.228Z,31.07
2023-02-08T04:05:37.226Z,28.03
2023-02-08T04:08:04.732Z,22.47
2023-02-08T04:10:31.907Z,23.30
2023-02-08T04:12:59.282Z,29.60
2023-02-08T04:15:27.437Z,28.23
2023-02-08T04:17:55.074Z,26.70
2023-02-08T04:20:22.263Z,28.60
2023-02-08T04:22:49.847Z,28.33
2023-02-08T04:25:17.102Z,26.10
2023-02-08T04:27:44.157Z,21.80
2023-02-08T04:30:12.387Z,24.17
2023-02-08T04:32:39.404Z,27.33
2023-02-08T04:35:07.196Z,25.50
2023-02-08T04:37:34.526Z,25.33
2023-02-08T04:40:01.661Z,25.43
2023-02-08T04:42:28.827Z,28.07
2023-02-08T04:44:55.972Z,24.80
2023-02-08T04:47:23.347Z,30.53
2023-02-08T04:49:50.348Z,26.63
2023-02-08T04:52:17.358Z,31.13
2023-02-08T04:54:44.402Z,24.00
2023-02-08T04:57:15.355Z,24.20
2023-02-08T04:59:42.575Z,27.60
2023-02-08T05:02:10.004Z,26.50
2023-02-08T05:04:37.021Z,21.80
2023-02-08T05:07:04.150Z,26.30
2023-02-08T05:09:32.649Z,30.13
2023-02-08T05:11:59.663Z,29.83
2023-02-08T05:14:26.679Z,28.53
2023-02-08T05:16:53.717Z,28.23
2023-02-08T05:19:20.683Z,28.53
2023-02-08T05:21:47.697Z,32.93
2023-02-08T05:24:14.749Z,30.97
2023-02-08T05:26:42.116Z,32.23
2023-02-08T05:29:09.118Z,30.13
2023-02-08T05:31:36.534Z,28.87
2023-02-08T05:34:03.987Z,30.77
2023-02-08T05:36:31.038Z,32.93
2023-02-08T05:38:58.110Z,29.17
2023-02-08T05:41:25.191Z,31.20
2023-02-08T05:43:52.249Z,34.97
2023-02-08T05:46:19.318Z,35.13
2023-02-08T05:48:46.485Z,32.87
2023-02-08T05:51:13.520Z,36.07
2023-02-08T05:53:40.600Z,36.63
2023-02-08T05:56:07.816Z,34.33
2023-02-08T05:58:35.258Z,36.77
2023-02-08T06:01:07.389Z,35.03
2023-02-08T06:03:34.367Z,36.20
2023-02-08T06:06:01.768Z,36.77
2023-02-08T06:08:28.868Z,36.67
2023-02-08T06:10:55.973Z,43.63
2023-02-08T06:13:23.153Z,41.47
2023-02-08T06:15:50.285Z,40.70
2023-02-08T06:18:18.527Z,38.73
2023-02-08T06:20:45.555Z,39.23
2023-02-08T06:23:12.654Z,37.97
2023-02-08T06:25:39.719Z,40.50
2023-02-08T06:28:08.916Z,44.63
2023-02-08T06:30:36.799Z,41.30
2023-02-08T06:33:04.851Z,46.67
2023-02-08T06:35:32.772Z,41.57
2023-02-08T06:37:59.917Z,42.70
2023-02-08T06:40:27.192Z,44.53
2023-02-08T06:42:54.189Z,44.10
2023-02-08T06:45:21.185Z,47.50
2023-02-08T06:47:48.185Z,40.30
2023-02-08T06:50:15.304Z,39.23
2023-02-08T06:52:42.352Z,49.10
2023-02-08T06:55:09.334Z,43.43
2023-02-08T06:57:36.394Z,45.80
2023-02-08T07:00:05.334Z,48.00
2023-02-08T07:02:32.776Z,39.67
2023-02-08T07:04:59.782Z,48.50
2023-02-08T07:07:28.070Z,37.03
2023-02-08T07:09:55.096Z,37.43
2023-02-08T07:12:22.106Z,35.43
2023-02-08T07:14:49.232Z,39.47
2023-02-08T07:17:16.328Z,42.03
2023-02-08T07:19:43.335Z,39.77
2023-02-08T07:22:10.377Z,34.63
2023-02-08T07:24:40.651Z,39.13
2023-02-08T07:27:10.593Z,37.80
2023-02-08T07:29:38.350Z,42.23
2023-02-08T07:32:07.413Z,39.30
2023-02-08T07:34:37.458Z,41.13
2023-02-08T07:37:04.848Z,40.40
2023-02-08T07:39:32.142Z,39.27
2023-02-08T07:41:59.891Z,35.30
2023-02-08T07:44:26.988Z,38.73
2023-02-08T07:46:54.049Z,39.23
2023-02-08T07:49:21.152Z,37.80
2023-02-08T07:51:48.176Z,42.93
2023-02-08T07:54:15.793Z,40.10
2023-02-08T07:56:42.858Z,37.97
2023-02-08T07:59:09.908Z,32.77
2023-02-08T08:01:37.014Z,32.27
2023-02-08T08:04:04.386Z,43.03
2023-02-08T08:06:31.408Z,36.07
2023-02-08T08:08:58.652Z,38.87
2023-02-08T08:11:25.711Z,36.77
2023-02-08T08:13:53.111Z,31.17
2023-02-08T08:16:20.826Z,24.47
2023-02-08T08:18:48.152Z,23.00
2023-02-08T08:21:16.756Z,25.07
2023-02-08T08:23:44.328Z,19.53
2023-02-08T08:26:16.162Z,20.07
2023-02-08T08:28:43.791Z,21.23
2023-02-08T08:31:16.744Z,23.20
2023-02-08T08:33:44.286Z,22.30
2023-02-08T08:36:11.510Z,25.50
2023-02-08T08:38:39.382Z,23.67
2023-02-08T08:41:12.650Z,22.10
2023-02-08T08:43:39.706Z,22.70
2023-02-08T08:46:10.629Z,22.77
2023-02-08T08:48:40.734Z,23.67
2023-02-08T08:51:07.755Z,24.80
2023-02-08T08:53:37.087Z,29.10
2023-02-08T08:56:05.723Z,21.73
2023-02-08T08:58:33.105Z,24.40
2023-02-08T09:01:00.589Z,35.10
2023-02-08T09:03:29.017Z,25.70
2023-02-08T09:05:56.909Z,28.03
2023-02-08T09:08:24.200Z,31.63
2023-02-08T09:10:51.204Z,31.60
2023-02-08T09:13:21.855Z,29.80
2023-02-08T09:15:49.922Z,40.57
2023-02-08T09:18:17.066Z,36.30
2023-02-08T09:20:44.475Z,33.00
2023-02-08T09:23:12.783Z,35.73
2023-02-08T09:25:40.174Z,32.80
2023-02-08T09:28:07.257Z,32.57
2023-02-08T09:30:34.295Z,31.87
2023-02-08T09:33:01.319Z,36.97
2023-02-08T09:35:28.373Z,38.60
2023-02-08T09:37:58.171Z,33.83
2023-02-08T09:40:36.031Z,33.37
2023-02-08T09:43:44.576Z,36.53
2023-02-08T09:46:36.025Z,35.97
2023-02-08T09:49:09.561Z,34.40
2023-02-08T09:51:41.902Z,38.63
2023-02-08T09:54:29.839Z,34.03
2023-02-08T09:57:01.511Z,38.23
2023-02-08T09:59:32.775Z,43.07
2023-02-08T10:02:27.393Z,35.57
2023-02-08T10:05:00.242Z,30.77
2023-02-08T10:07:28.978Z,29.07
2023-02-08T10:10:02.260Z,37.20
2023-02-08T10:12:43.580Z,35.60
2023-02-08T10:15:16.412Z,28.23
2023-02-08T10:18:19.596Z,33.17
2023-02-08T10:21:24.793Z,29.07
2023-02-08T10:24:22.140Z,30.17
2023-02-08T10:27:16.101Z,28.60
2023-02-08T10:30:24.925Z,25.40
2023-02-08T10:33:02.975Z,27.80
2023-02-08T10:35:39.196Z,33.17
2023-02-08T10:38:31.935Z,21.63
2023-02-08T10:41:07.938Z,23.50
2023-02-08T10:43:45.993Z,26.90
2023-02-08T10:46:35.602Z,28.03
2023-02-08T10:49:31.946Z,28.80
2023-02-08T10:51:58.989Z,32.17
2023-02-08T10:54:26.032Z,29.40
2023-02-08T10:57:12.985Z,30.77
2023-02-08T10:59:51.176Z,32.10
2023-02-08T11:02:26.814Z,23.97
2023-02-08T11:05:12.773Z,28.30
2023-02-08T11:07:39.942Z,26.50
2023-02-08T11:10:16.130Z,26.00
2023-02-08T11:13:14.908Z,24.03
2023-02-08T11:15:52.707Z,26.10
2023-02-08T11:18:37.808Z,26.60
2023-02-08T11:21:20.853Z,26.53
2023-02-08T11:23:55.571Z,23.23
2023-02-08T11:26:33.543Z,21.57
2023-02-08T11:29:27.593Z,21.87
2023-02-08T11:32:02.739Z,23.53
2023-02-08T11:34:38.529Z,22.40
2023-02-08T11:37:25.941Z,25.57
2023-02-08T11:40:01.316Z,25.77
2023-02-08T11:42:35.957Z,32.23
2023-02-08T11:45:04.861Z,24.50
2023-02-08T11:47:37.482Z,30.90
2023-02-08T11:50:08.278Z,25.97
2023-02-08T11:52:41.429Z,29.43
2023-02-08T11:55:16.748Z,21.23
2023-02-08T11:58:17.991Z,20.83
2023-02-08T12:01:05.017Z,19.07
2023-02-08T12:03:38.802Z,19.90
2023-02-08T12:06:30.390Z,10.63
2023-02-08T12:09:03.124Z,13.03
2023-02-08T12:11:43.437Z,17.80
2023-02-08T12:14:40.949Z,14.43
2023-02-08T12:17:26.872Z,14.13
2023-02-08T12:20:30.591Z,17.40
2023-02-08T12:23:43.375Z,14.83
2023-02-08T12:26:31.000Z,15.63
2023-02-08T12:29:33.134Z,16.20
2023-02-08T12:32:11.369Z,16.57
2023-02-08T12:35:41.432Z,15.00
2023-02-08T12:38:54.531Z,16.17
2023-02-08T12:42:03.744Z,12.73
2023-02-08T12:44:54.144Z,14.77
2023-02-08T12:48:04.035Z,14.70
2023-02-08T12:50:56.129Z,10.27
2023-02-08T12:53:54.726Z,13.13
2023-02-08T12:56:29.703Z,10.13
2023-02-08T12:59:11.894Z,10.40
2023-02-08T13:01:47.294Z,7.67
2023-02-08T13:04:23.165Z,6.60
2023-02-08T13:07:08.770Z,6.70
2023-02-08T13:09:44.424Z,8.90
2023-02-08T13:12:38.253Z,8.03
2023-02-08T13:15:30.674Z,8.67
2023-02-08T13:18:12.195Z,7.27
2023-02-08T13:20:53.677Z,6.57
2023-02-08T13:23:38.449Z,6.77
2023-02-08T13:26:31.735Z,6.03
2023-02-08T13:29:02.738Z,7.37
2023-02-08T13:31:39.026Z,7.63
2023-02-08T13:34:28.079Z,6.37
2023-02-08T13:37:03.641Z,7.77
2023-02-08T13:39:45.599Z,7.33
2023-02-08T13:42:48.484Z,5.13
2023-02-08T13:45:39.564Z,6.20
2023-02-08T13:48:14.395Z,7.70
2023-02-08T13:50:54.296Z,10.53
2023-02-08T13:53:39.890Z,6.27
2023-02-08T13:56:12.401Z,8.10
2023-02-08T13:58:39.492Z,10.30
2023-02-08T14:01:15.235Z,7.73
2023-02-08T14:03:42.508Z,9.17
2023-02-08T14:06:28.131Z,10.00
2023-02-08T14:09:26.905Z,10.97
2023-02-08T14:12:03.577Z,8.93
2023-02-08T14:14:38.572Z,8.90
2023-02-08T14:17:05.471Z,11.33
2023-02-08T14:19:36.610Z,11.43
2023-02-08T14:22:17.284Z,9.03
2023-02-08T14:25:00.527Z,8.57
2023-02-08T14:27:50.694Z,9.80
2023-02-08T14:30:17.597Z,9.17
2023-02-08T14:33:08.695Z,9.27
2023-02-08T14:35:50.586Z,10.23
2023-02-08T14:38:20.769Z,11.60
2023-02-08T14:40:55.124Z,10.47
2023-02-08T14:43:37.991Z,10.17
2023-02-08T14:46:39.179Z,12.40
2023-02-08T14:49:15.904Z,17.23
2023-02-08T14:51:56.579Z,16.53
2023-02-08T14:54:39.825Z,12.23
2023-02-08T14:57:28.124Z,12.93
2023-02-08T14:59:59.074Z,15.00
2023-02-08T15:02:37.177Z,15.63
2023-02-08T15:05:09.897Z,15.23
2023-02-08T15:07:57.432Z,16.90
2023-02-08T15:10:27.085Z,12.47
2023-02-08T15:13:00.680Z,24.17
2023-02-08T15:15:41.586Z,11.57
2023-02-08T15:18:20.509Z,13.97
2023-02-08T15:21:03.633Z,12.67
2023-02-08T15:23:30.980Z,12.70
2023-02-08T15:26:19.676Z,14.73
2023-02-08T15:28:46.854Z,13.63
2023-02-08T15:31:19.250Z,17.37
2023-02-08T15:33:47.470Z,17.63
2023-02-08T15:36:24.650Z,19.70
2023-02-08T15:38:52.067Z,16.17
2023-02-08T15:41:34.373Z,14.33
2023-02-08T15:44:30.130Z,15.63
2023-02-08T15:47:04.332Z,17.00
2023-02-08T15:49:43.589Z,16.87
2023-02-08T15:52:19.536Z,15.90
2023-02-08T15:54:47.222Z,19.73
2023-02-08T15:57:38.753Z,16.27
2023-02-08T16:00:13.239Z,16.97
2023-02-08T16:02:41.289Z,16.47
2023-02-08T16:05:26.819Z,14.80
2023-02-08T16:07:54.696Z,17.03
2023-02-08T16:10:46.637Z,16.90
2023-02-08T16:13:30.314Z,14.90
2023-02-08T16:16:20.300Z,17.80
2023-02-08T16:18:58.662Z,17.87
2023-02-08T16:21:25.523Z,16.27
2023-02-08T16:23:56.714Z,17.40
2023-02-08T16:26:32.270Z,14.97
2023-02-08T16:29:02.807Z,22.67
2023-02-08T16:31:33.303Z,22.60
2023-02-08T16:34:07.658Z,18.30
2023-02-08T16:36:40.535Z,18.47
2023-02-08T16:39:19.482Z,19.23
2023-02-08T16:42:06.376Z,15.43
2023-02-08T16:45:23.535Z,21.40
2023-02-08T16:47:58.378Z,23.43
2023-02-08T16:50:28.482Z,20.60
2023-02-08T16:53:04.116Z,19.93
2023-02-08T16:55:36.364Z,20.07
2023-02-08T16:58:03.456Z,18.73
2023-02-08T17:00:33.322Z,19.40
2023-02-08T17:03:01.258Z,17.03
2023-02-08T17:05:35.261Z,19.57
2023-02-08T17:08:09.952Z,20.53
2023-02-08T17:10:38.093Z,19.80
2023-02-08T17:13:19.753Z,19.27
2023-02-08T17:15:49.587Z,20.40
2023-02-08T17:18:16.746Z,14.83
2023-02-08T17:20:44.115Z,22.07
2023-02-08T17:23:11.719Z,23.67
2023-02-08T17:25:39.297Z,23.17
2023-02-08T17:28:14.380Z,27.00
2023-02-08T17:30:43.753Z,22.40
2023-02-08T17:33:18.298Z,22.43
2023-02-08T17:35:51.405Z,23.17
2023-02-08T17:38:20.085Z,20.20
2023-02-08T17:40:48.021Z,18.87
2023-02-08T17:43:15.146Z,25.03
2023-02-08T17:45:43.847Z,21.73
2023-02-08T17:48:13.530Z,22.23
2023-02-08T17:50:47.777Z,24.83
2023-02-08T17:53:15.989Z,20.37
2023-02-08T17:55:47.222Z,24.83
2023-02-08T17:58:14.398Z,19.40
2023-02-08T18:00:41.462Z,21.10
2023-02-08T18:03:08.638Z,25.93
2023-02-08T18:05:36.951Z,24.57
2023-02-08T18:08:04.076Z,26.30
2023-02-08T18:10:31.152Z,22.00
2023-02-08T18:12:59.087Z,24.17
2023-02-08T18:15:26.069Z,23.07
2023-02-08T18:17:53.156Z,22.03
2023-02-08T18:20:20.578Z,24.20
2023-02-08T18:22:47.690Z,27.07
2023-02-08T18:25:16.144Z,30.60
2023-02-08T18:27:43.520Z,31.80
2023-02-08T18:30:12.394Z,26.73
2023-02-08T18:32:39.867Z,28.77
2023-02-08T18:35:08.797Z,29.00
2023-02-08T18:37:37.659Z,30.20
2023-02-08T18:40:07.631Z,29.87
2023-02-08T18:42:36.335Z,31.00
2023-02-08T18:45:06.928Z,30.73
2023-02-08T18:47:36.533Z,32.27
2023-02-08T18:50:04.055Z,30.10
2023-02-08T18:52:31.721Z,29.77
2023-02-08T18:54:58.938Z,32.70
2023-02-08T18:57:25.942Z,34.33
2023-02-08T18:59:54.300Z,32.73
2023-02-08T19:02:23.061Z,30.70
2023-02-08T19:04:50.219Z,36.27
2023-02-08T19:07:17.216Z,29.20
2023-02-08T19:09:44.344Z,31.43
2023-02-08T19:12:15.666Z,35.43
2023-02-08T19:14:43.713Z,32.57
2023-02-08T19:17:13.581Z,31.40
2023-02-08T19:19:41.991Z,43.27
2023-02-08T19:22:09.551Z,41.23
2023-02-08T19:24:36.618Z,43.67
2023-02-08T19:27:03.985Z,37.50
2023-02-08T19:29:32.682Z,38.83
2023-02-08T19:31:59.748Z,37.43
2023-02-08T19:34:26.768Z,33.53
2023-02-08T19:36:54.862Z,34.90
2023-02-08T19:39:26.149Z,37.73
2023-02-08T19:41:54.680Z,38.13
2023-02-08T19:44:22.806Z,34.70
2023-02-08T19:46:53.952Z,40.20
2023-02-08T19:49:25.921Z,35.13
2023-02-08T19:51:53.543Z,38.43
2023-02-08T19:54:21.478Z,40.80
2023-02-08T19:56:50.409Z,33.10
2023-02-08T19:59:27.722Z,35.03
2023-02-08T20:01:55.638Z,35.97
2023-02-08T20:04:23.615Z,40.50
2023-02-08T20:06:53.727Z,39.17
2023-02-08T20:09:21.304Z,40.37
2023-02-08T20:11:57.356Z,36.80
2023-02-08T20:14:31.137Z,35.00
2023-02-08T20:16:58.801Z,34.93
2023-02-08T20:19:26.349Z,38.77
2023-02-08T20:21:53.641Z,38.23
2023-02-08T20:24:21.496Z,40.17
2023-02-08T20:26:49.327Z,36.33
2023-02-08T20:29:17.241Z,34.77
2023-02-08T20:31:47.703Z,33.00
2023-02-08T20:34:19.001Z,35.37
2023-02-08T20:37:04.556Z,36.73
2023-02-08T20:39:34.826Z,38.40
2023-02-08T20:42:01.839Z,39.70
2023-02-08T20:44:28.863Z,33.77
2023-02-08T20:46:56.007Z,34.97
2023-02-08T20:49:25.718Z,35.97
2023-02-08T20:51:55.831Z,37.20
2023-02-08T20:54:24.812Z,34.87
2023-02-08T20:56:53.816Z,33.20
2023-02-08T20:59:21.276Z,35.77
2023-02-08T21:01:48.568Z,43.87
2023-02-08T21:04:17.199Z,35.97
2023-02-08T21:06:46.246Z,38.97
2023-02-08T21:09:15.952Z,41.93
2023-02-08T21:11:44.097Z,39.10
2023-02-08T21:14:18.559Z,36.53
2023-02-08T21:16:52.444Z,38.63
2023-02-08T21:19:20.845Z,37.23
2023-02-08T21:21:56.997Z,35.50
2023-02-08T21:24:24.811Z,34.00
2023-02-08T21:26:56.580Z,35.83
2023-02-08T21:29:24.646Z,36.77
2023-02-08T21:31:54.148Z,36.07
2023-02-08T21:34:21.652Z,40.27
2023-02-08T21:36:48.802Z,37.57
2023-02-08T21:39:15.785Z,34.83
2023-02-08T21:41:42.808Z,34.23
2023-02-08T21:44:10.974Z,37.47
2023-02-08T21:46:38.140Z,38.37
2023-02-08T21:49:23.755Z,38.93
2023-02-08T21:52:09.884Z,36.07
2023-02-08T21:54:43.036Z,36.13
2023-02-08T21:57:20.797Z,38.80
2023-02-08T21:59:51.201Z,46.47
2023-02-08T22:02:25.909Z,43.00
2023-02-08T22:04:55.356Z,44.37
2023-02-08T22:07:23.616Z,42.33
2023-02-08T22:09:51.276Z,46.00
2023-02-08T22:12:21.052Z,45.07
2023-02-08T22:14:49.516Z,46.53
2023-02-08T22:17:17.017Z,46.47
2023-02-08T22:19:44.299Z,47.77
2023-02-08T22:22:12.441Z,47.17
2023-02-08T22:24:39.734Z,46.77
2023-02-08T22:27:06.845Z,44.60
2023-02-08T22:29:34.240Z,46.50
2023-02-08T22:32:01.581Z,47.60
2023-02-08T22:34:29.113Z,55.33
2023-02-08T22:36:56.164Z,52.07
2023-02-08T22:39:23.566Z,59.37
2023-02-08T22:41:50.668Z,52.27
2023-02-08T22:44:17.730Z,52.43
2023-02-08T22:46:44.891Z,50.47
2023-02-08T22:49:12.136Z,52.50
2023-02-08T22:51:39.164Z,51.63
2023-02-08T22:54:06.323Z,53.27
2023-02-08T22:56:33.445Z,52.13
2023-02-08T22:59:00.815Z,55.80
2023-02-08T23:01:28.654Z,51.60
2023-02-08T23:03:55.801Z,50.03
2023-02-08T23:06:22.843Z,56.93
2023-02-08T23:08:50.560Z,50.93
2023-02-08T23:11:18.370Z,48.43
2023-02-08T23:13:45.453Z,54.10
2023-02-08T23:16:15.157Z,58.33
2023-02-08T23:18:43.004Z,55.20
2023-02-08T23:21:15.546Z,55.27
2023-02-08T23:23:44.010Z,52.43
2023-02-08T23:26:15.243Z,55.27
2023-02-08T23:28:42.389Z,61.80
2023-02-08T23:31:12.544Z,65.50
2023-02-08T23:33:40.022Z,58.70
2023-02-08T23:36:11.285Z,57.13
2023-02-08T23:38:39.292Z,57.10
2023-02-08T23:41:10.872Z,66.17
2023-02-08T23:43:38.722Z,61.37
2023-02-08T23:46:12.049Z,54.67
2023-02-08T23:48:39.474Z,59.73
2023-02-08T23:51:08.050Z,59.80
2023-02-08T23:53:37.114Z,55.37
2023-02-08T23:56:10.287Z,52.77
2023-02-08T23:58:37.686Z,57.93
